sensor_id;sensor_type;location;lat;lon;timestamp;noise_LAeq;noise_LA_min;noise_LA_max;noise_LA01;noise_LA95
66747;Laerm;53658;50.742;10.864;2024-01-11T00:00:35;57.14;51.04;58.54;;
66747;Laerm;53658;50.742;10.864;2024-01-11T00:03:01;57.39;50.92;58.67;;
66747;Laerm;53658;50.742;10.864;2024-01-11T00:05:27;57.58;51.22;58.79;;
66747;Laerm;53658;50.742;10.864;2024-01-11T00:07:53;57.69;51.21;58.90;;
66747;Laerm;53658;50.742;10.864;2024-01-11T00:10:19;57.85;51.36;58.97;;
66747;Laerm;53658;50.742;10.864;2024-01-11T00:12:46;57.87;51.17;58.88;;
66747;Laerm;53658;50.742;10.864;2024-01-11T00:15:12;57.89;51.72;58.85;;
66747;Laerm;53658;50.742;10.864;2024-01-11T00:17:38;57.91;51.49;58.89;;
66747;Laerm;53658;50.742;10.864;2024-01-11T00:20:05;57.95;51.79;58.96;;
66747;Laerm;53658;50.742;10.864;2024-01-11T00:22:31;57.97;51.40;58.97;;
66747;Laerm;53658;50.742;10.864;2024-01-11T00:24:57;58.02;51.78;58.86;;
66747;Laerm;53658;50.742;10.864;2024-01-11T00:27:23;58.03;51.44;58.93;;
66747;Laerm;53658;50.742;10.864;2024-01-11T00:29:49;58.03;51.58;59.01;;
66747;Laerm;53658;50.742;10.864;2024-01-11T00:32:15;58.00;51.48;59.00;;
66747;Laerm;53658;50.742;10.864;2024-01-11T00:34:41;57.96;51.71;58.95;;
66747;Laerm;53658;50.742;10.864;2024-01-11T00:37:07;57.96;51.30;58.96;;
66747;Laerm;53658;50.742;10.864;2024-01-11T00:39:32;57.95;51.30;59.00;;
66747;Laerm;53658;50.742;10.864;2024-01-11T00:41:58;58.02;52.01;58.91;;
66747;Laerm;53658;50.742;10.864;2024-01-11T00:44:24;58.03;51.72;58.94;;
66747;Laerm;53658;50.742;10.864;2024-01-11T00:46:50;58.01;51.71;58.95;;
66747;Laerm;53658;50.742;10.864;2024-01-11T00:49:16;57.99;51.79;58.85;;
66747;Laerm;53658;50.742;10.864;2024-01-11T00:51:41;58.00;51.66;58.95;;
66747;Laerm;53658;50.742;10.864;2024-01-11T00:54:07;58.04;52.05;58.95;;
66747;Laerm;53658;50.742;10.864;2024-01-11T00:56:33;58.05;51.53;58.89;;
66747;Laerm;53658;50.742;10.864;2024-01-11T00:59:00;58.03;52.17;58.73;;
66747;Laerm;53658;50.742;10.864;2024-01-11T01:01:26;58.05;52.08;58.91;;
66747;Laerm;53658;50.742;10.864;2024-01-11T01:03:51;58.06;51.75;58.85;;
66747;Laerm;53658;50.742;10.864;2024-01-11T01:06:17;58.05;51.77;58.88;;
66747;Laerm;53658;50.742;10.864;2024-01-11T01:08:43;58.08;52.11;58.88;;
66747;Laerm;53658;50.742;10.864;2024-01-11T01:11:09;58.05;51.77;58.81;;
66747;Laerm;53658;50.742;10.864;2024-01-11T01:13:35;58.04;52.06;58.93;;
66747;Laerm;53658;50.742;10.864;2024-01-11T01:16:00;58.01;51.49;59.00;;
66747;Laerm;53658;50.742;10.864;2024-01-11T01:18:26;57.97;51.40;58.86;;
66747;Laerm;53658;50.742;10.864;2024-01-11T01:20:53;57.91;51.57;58.93;;
66747;Laerm;53658;50.742;10.864;2024-01-11T01:23:19;57.74;51.56;58.93;;
66747;Laerm;53658;50.742;10.864;2024-01-11T01:25:45;57.73;51.44;58.89;;
66747;Laerm;53658;50.742;10.864;2024-01-11T01:28:11;57.80;51.38;58.86;;
66747;Laerm;53658;50.742;10.864;2024-01-11T01:30:36;57.98;51.55;58.89;;
66747;Laerm;53658;50.742;10.864;2024-01-11T01:33:02;58.02;51.67;58.93;;
66747;Laerm;53658;50.742;10.864;2024-01-11T01:35:28;58.02;51.40;58.93;;
66747;Laerm;53658;50.742;10.864;2024-01-11T01:37:55;58.01;52.11;58.91;;
66747;Laerm;53658;50.742;10.864;2024-01-11T01:40:20;57.96;51.76;58.75;;
66747;Laerm;53658;50.742;10.864;2024-01-11T01:42:47;57.97;51.54;58.76;;
66747;Laerm;53658;50.742;10.864;2024-01-11T01:45:15;57.98;51.98;58.78;;
66747;Laerm;53658;50.742;10.864;2024-01-11T01:47:42;58.03;52.13;58.87;;
66747;Laerm;53658;50.742;10.864;2024-01-11T01:50:10;58.02;52.36;58.94;;
66747;Laerm;53658;50.742;10.864;2024-01-11T01:52:39;57.91;52.92;58.68;;
66747;Laerm;53658;50.742;10.864;2024-01-11T01:55:06;57.96;51.86;58.73;;
66747;Laerm;53658;50.742;10.864;2024-01-11T01:57:35;57.94;52.38;58.72;;
66747;Laerm;53658;50.742;10.864;2024-01-11T02:00:02;57.90;51.83;58.76;;
66747;Laerm;53658;50.742;10.864;2024-01-11T02:02:39;57.74;52.69;58.68;;
66747;Laerm;53658;50.742;10.864;2024-01-11T02:05:10;57.73;52.97;58.55;;
66747;Laerm;53658;50.742;10.864;2024-01-11T02:07:37;57.97;51.53;58.78;;
66747;Laerm;53658;50.742;10.864;2024-01-11T02:10:03;58.02;51.60;58.91;;
66747;Laerm;53658;50.742;10.864;2024-01-11T02:12:29;58.01;51.49;58.99;;
66747;Laerm;53658;50.742;10.864;2024-01-11T02:14:55;58.01;51.89;58.90;;
66747;Laerm;53658;50.742;10.864;2024-01-11T02:17:21;57.99;52.20;58.91;;
66747;Laerm;53658;50.742;10.864;2024-01-11T02:19:47;58.01;51.99;58.86;;
66747;Laerm;53658;50.742;10.864;2024-01-11T02:22:31;58.00;51.38;58.90;;
66747;Laerm;53658;50.742;10.864;2024-01-11T02:24:57;58.02;51.30;58.89;;
66747;Laerm;53658;50.742;10.864;2024-01-11T02:27:24;58.04;52.00;58.96;;
66747;Laerm;53658;50.742;10.864;2024-01-11T02:29:50;58.04;51.78;59.02;;
66747;Laerm;53658;50.742;10.864;2024-01-11T02:32:15;58.00;51.52;58.83;;
66747;Laerm;53658;50.742;10.864;2024-01-11T02:34:42;57.97;52.42;58.79;;
66747;Laerm;53658;50.742;10.864;2024-01-11T02:37:08;57.96;51.98;58.79;;
66747;Laerm;53658;50.742;10.864;2024-01-11T02:39:35;57.93;52.34;58.67;;
66747;Laerm;53658;50.742;10.864;2024-01-11T02:42:01;57.94;52.88;58.74;;
66747;Laerm;53658;50.742;10.864;2024-01-11T02:44:27;57.93;52.74;58.73;;
66747;Laerm;53658;50.742;10.864;2024-01-11T02:46:53;58.02;51.71;58.91;;
66747;Laerm;53658;50.742;10.864;2024-01-11T02:49:19;58.02;51.14;58.86;;
66747;Laerm;53658;50.742;10.864;2024-01-11T02:51:44;58.00;52.13;58.89;;
66747;Laerm;53658;50.742;10.864;2024-01-11T02:54:11;58.02;51.66;58.92;;
66747;Laerm;53658;50.742;10.864;2024-01-11T02:56:36;57.98;51.77;58.82;;
66747;Laerm;53658;50.742;10.864;2024-01-11T02:59:02;57.88;52.09;58.63;;
66747;Laerm;53658;50.742;10.864;2024-01-11T03:01:28;57.73;53.04;58.47;;
66747;Laerm;53658;50.742;10.864;2024-01-11T03:03:54;57.82;52.34;58.71;;
66747;Laerm;53658;50.742;10.864;2024-01-11T03:06:20;57.72;51.85;58.47;;
66747;Laerm;53658;50.742;10.864;2024-01-11T03:08:48;57.75;51.87;58.47;;
66747;Laerm;53658;50.742;10.864;2024-01-11T03:11:14;57.79;52.85;58.60;;
66747;Laerm;53658;50.742;10.864;2024-01-11T03:13:42;57.66;52.87;58.52;;
66747;Laerm;53658;50.742;10.864;2024-01-11T03:16:07;57.79;52.67;58.59;;
66747;Laerm;53658;50.742;10.864;2024-01-11T03:18:33;57.80;52.27;58.60;;
66747;Laerm;53658;50.742;10.864;2024-01-11T03:20:59;57.76;52.91;58.63;;
66747;Laerm;53658;50.742;10.864;2024-01-11T03:23:25;57.57;52.79;58.42;;
66747;Laerm;53658;50.742;10.864;2024-01-11T03:25:50;57.56;51.42;58.39;;
66747;Laerm;53658;50.742;10.864;2024-01-11T03:28:17;57.56;52.68;58.42;;
66747;Laerm;53658;50.742;10.864;2024-01-11T03:30:43;57.78;52.04;58.54;;
66747;Laerm;53658;50.742;10.864;2024-01-11T03:33:09;57.67;51.37;58.48;;
66747;Laerm;53658;50.742;10.864;2024-01-11T03:35:35;57.45;52.68;58.26;;
66747;Laerm;53658;50.742;10.864;2024-01-11T03:38:00;57.47;52.86;58.19;;
66747;Laerm;53658;50.742;10.864;2024-01-11T03:40:26;57.43;53.93;58.37;;
66747;Laerm;53658;50.742;10.864;2024-01-11T03:42:52;57.50;54.85;58.21;;
66747;Laerm;53658;50.742;10.864;2024-01-11T03:45:18;57.37;55.33;58.09;;
66747;Laerm;53658;50.742;10.864;2024-01-11T03:47:45;57.44;54.12;58.30;;
66747;Laerm;53658;50.742;10.864;2024-01-11T03:50:10;57.53;54.25;58.27;;
66747;Laerm;53658;50.742;10.864;2024-01-11T03:52:36;57.50;52.33;58.25;;
66747;Laerm;53658;50.742;10.864;2024-01-11T03:55:02;57.35;52.54;58.13;;
66747;Laerm;53658;50.742;10.864;2024-01-11T03:57:28;57.51;53.33;58.21;;
66747;Laerm;53658;50.742;10.864;2024-01-11T03:59:54;57.53;52.09;58.37;;
66747;Laerm;53658;50.742;10.864;2024-01-11T04:02:20;57.32;53.65;58.05;;
66747;Laerm;53658;50.742;10.864;2024-01-11T04:04:46;57.10;55.62;57.92;;
66747;Laerm;53658;50.742;10.864;2024-01-11T04:07:12;57.23;53.88;58.00;;
66747;Laerm;53658;50.742;10.864;2024-01-11T04:09:38;57.56;53.14;58.39;;
66747;Laerm;53658;50.742;10.864;2024-01-11T04:12:05;57.60;51.89;58.37;;
66747;Laerm;53658;50.742;10.864;2024-01-11T04:14:31;57.58;53.25;58.38;;
66747;Laerm;53658;50.742;10.864;2024-01-11T04:16:57;57.23;52.54;57.94;;
66747;Laerm;53658;50.742;10.864;2024-01-11T04:19:23;57.14;54.00;57.95;;
66747;Laerm;53658;50.742;10.864;2024-01-11T04:21:49;57.25;54.07;58.01;;
66747;Laerm;53658;50.742;10.864;2024-01-11T04:24:14;57.39;52.28;58.20;;
66747;Laerm;53658;50.742;10.864;2024-01-11T04:26:40;57.16;53.69;58.09;;
66747;Laerm;53658;50.742;10.864;2024-01-11T04:29:06;56.94;54.94;57.67;;
66747;Laerm;53658;50.742;10.864;2024-01-11T04:31:32;56.97;53.69;57.79;;
66747;Laerm;53658;50.742;10.864;2024-01-11T04:33:59;57.17;54.54;57.97;;
66747;Laerm;53658;50.742;10.864;2024-01-11T04:36:24;57.36;53.21;58.06;;
66747;Laerm;53658;50.742;10.864;2024-01-11T04:38:50;57.15;54.28;57.87;;
66747;Laerm;53658;50.742;10.864;2024-01-11T04:41:16;57.01;53.88;57.74;;
66747;Laerm;53658;50.742;10.864;2024-01-11T04:43:45;57.06;53.46;57.82;;
66747;Laerm;53658;50.742;10.864;2024-01-11T04:48:44;57.17;54.37;57.99;;
66747;Laerm;53658;50.742;10.864;2024-01-11T04:51:11;57.19;53.80;58.09;;
66747;Laerm;53658;50.742;10.864;2024-01-11T04:53:39;57.10;54.17;57.92;;
66747;Laerm;53658;50.742;10.864;2024-01-11T04:56:06;57.06;53.92;57.81;;
66747;Laerm;53658;50.742;10.864;2024-01-11T04:58:33;57.25;54.48;58.07;;
66747;Laerm;53658;50.742;10.864;2024-01-11T05:00:59;57.45;54.93;58.19;;
66747;Laerm;53658;50.742;10.864;2024-01-11T05:03:25;57.46;52.21;58.14;;
66747;Laerm;53658;50.742;10.864;2024-01-11T05:05:51;57.20;53.83;58.04;;
66747;Laerm;53658;50.742;10.864;2024-01-11T05:08:17;57.13;54.94;57.84;;
66747;Laerm;53658;50.742;10.864;2024-01-11T05:10:43;57.17;53.61;57.99;;
66747;Laerm;53658;50.742;10.864;2024-01-11T05:13:10;57.24;54.35;57.96;;
66747;Laerm;53658;50.742;10.864;2024-01-11T05:15:36;57.35;52.80;58.10;;
66747;Laerm;53658;50.742;10.864;2024-01-11T05:18:01;57.40;52.97;58.14;;
66747;Laerm;53658;50.742;10.864;2024-01-11T05:20:27;57.41;54.60;58.16;;
66747;Laerm;53658;50.742;10.864;2024-01-11T05:22:53;57.40;53.04;58.21;;
66747;Laerm;53658;50.742;10.864;2024-01-11T05:25:19;57.49;54.16;58.23;;
66747;Laerm;53658;50.742;10.864;2024-01-11T05:27:45;57.38;54.82;58.05;;
66747;Laerm;53658;50.742;10.864;2024-01-11T05:30:11;57.37;53.04;58.10;;
66747;Laerm;53658;50.742;10.864;2024-01-11T05:32:38;57.25;52.28;58.04;;
66747;Laerm;53658;50.742;10.864;2024-01-11T05:35:04;57.32;54.44;58.14;;
66747;Laerm;53658;50.742;10.864;2024-01-11T05:37:30;57.32;52.92;58.16;;
66747;Laerm;53658;50.742;10.864;2024-01-11T05:39:55;57.62;52.83;58.42;;
66747;Laerm;53658;50.742;10.864;2024-01-11T05:42:23;57.86;52.56;58.65;;
66747;Laerm;53658;50.742;10.864;2024-01-11T05:44:51;57.99;52.16;58.76;;
66747;Laerm;53658;50.742;10.864;2024-01-11T05:47:17;58.02;51.46;58.96;;
66747;Laerm;53658;50.742;10.864;2024-01-11T05:49:43;57.97;51.44;58.88;;
66747;Laerm;53658;50.742;10.864;2024-01-11T05:52:09;57.81;50.98;58.92;;
66747;Laerm;53658;50.742;10.864;2024-01-11T05:54:35;57.75;51.47;58.90;;
66747;Laerm;53658;50.742;10.864;2024-01-11T05:57:00;57.77;51.07;58.89;;
66747;Laerm;53658;50.742;10.864;2024-01-11T05:59:26;57.89;51.54;58.93;;
66747;Laerm;53658;50.742;10.864;2024-01-11T06:01:52;58.00;51.67;59.07;;
66747;Laerm;53658;50.742;10.864;2024-01-11T06:04:18;58.06;51.75;58.98;;
66747;Laerm;53658;50.742;10.864;2024-01-11T06:06:44;58.03;51.82;59.18;;
66747;Laerm;53658;50.742;10.864;2024-01-11T06:09:09;58.01;52.02;58.81;;
66747;Laerm;53658;50.742;10.864;2024-01-11T06:11:36;58.01;52.21;58.79;;
66747;Laerm;53658;50.742;10.864;2024-01-11T06:14:01;57.99;51.84;58.82;;
66747;Laerm;53658;50.742;10.864;2024-01-11T06:16:28;57.98;51.92;58.75;;
66747;Laerm;53658;50.742;10.864;2024-01-11T06:18:54;58.03;51.58;59.06;;
66747;Laerm;53658;50.742;10.864;2024-01-11T06:21:20;58.01;51.66;58.74;;
66747;Laerm;53658;50.742;10.864;2024-01-11T06:23:46;58.02;52.06;59.06;;
66747;Laerm;53658;50.742;10.864;2024-01-11T06:26:12;57.98;51.87;59.02;;
66747;Laerm;53658;50.742;10.864;2024-01-11T06:28:38;58.00;51.44;58.90;;
66747;Laerm;53658;50.742;10.864;2024-01-11T06:31:03;58.01;51.76;58.88;;
66747;Laerm;53658;50.742;10.864;2024-01-11T06:33:29;58.02;52.07;58.84;;
66747;Laerm;53658;50.742;10.864;2024-01-11T06:35:55;57.97;52.02;58.77;;
66747;Laerm;53658;50.742;10.864;2024-01-11T06:38:21;58.02;51.42;58.82;;
66747;Laerm;53658;50.742;10.864;2024-01-11T06:40:50;58.02;51.34;59.01;;
66747;Laerm;53658;50.742;10.864;2024-01-11T06:43:16;57.96;51.64;58.96;;
66747;Laerm;53658;50.742;10.864;2024-01-11T06:45:42;57.78;51.45;58.88;;
66747;Laerm;53658;50.742;10.864;2024-01-11T06:48:08;57.51;51.22;58.73;;
66747;Laerm;53658;50.742;10.864;2024-01-11T06:50:34;56.82;50.70;58.36;;
66747;Laerm;53658;50.742;10.864;2024-01-11T06:53:01;56.37;50.46;57.97;;
66747;Laerm;53658;50.742;10.864;2024-01-11T06:55:27;55.67;50.11;58.02;;
66747;Laerm;53658;50.742;10.864;2024-01-11T06:57:53;54.49;50.12;56.48;;
66747;Laerm;53658;50.742;10.864;2024-01-11T07:00:23;54.45;49.79;56.27;;
66747;Laerm;53658;50.742;10.864;2024-01-11T07:02:48;54.16;49.87;55.92;;
66747;Laerm;53658;50.742;10.864;2024-01-11T07:05:14;54.25;49.96;56.09;;
66747;Laerm;53658;50.742;10.864;2024-01-11T07:07:40;54.28;49.96;56.32;;
66747;Laerm;53658;50.742;10.864;2024-01-11T07:10:06;54.26;49.77;56.10;;
66747;Laerm;53658;50.742;10.864;2024-01-11T07:12:34;54.50;49.77;56.44;;
66747;Laerm;53658;50.742;10.864;2024-01-11T07:15:00;54.40;49.97;56.30;;
66747;Laerm;53658;50.742;10.864;2024-01-11T07:17:25;54.69;50.15;56.55;;
66747;Laerm;53658;50.742;10.864;2024-01-11T07:19:51;54.32;49.83;56.29;;
66747;Laerm;53658;50.742;10.864;2024-01-11T07:22:17;54.42;50.10;56.49;;
66747;Laerm;53658;50.742;10.864;2024-01-11T07:24:43;55.36;50.22;57.05;;
66747;Laerm;53658;50.742;10.864;2024-01-11T07:27:09;55.43;49.94;57.11;;
66747;Laerm;53658;50.742;10.864;2024-01-11T07:29:34;55.59;50.25;57.35;;
66747;Laerm;53658;50.742;10.864;2024-01-11T07:32:01;55.40;50.28;57.15;;
66747;Laerm;53658;50.742;10.864;2024-01-11T07:34:27;55.54;50.28;57.35;;
66747;Laerm;53658;50.742;10.864;2024-01-11T07:36:53;55.86;50.24;57.62;;
66747;Laerm;53658;50.742;10.864;2024-01-11T07:39:20;55.46;50.19;57.34;;
66747;Laerm;53658;50.742;10.864;2024-01-11T07:41:46;54.91;50.00;56.78;;
66747;Laerm;53658;50.742;10.864;2024-01-11T07:44:12;54.38;49.79;56.23;;
66747;Laerm;53658;50.742;10.864;2024-01-11T07:46:38;54.57;50.09;56.40;;
66747;Laerm;53658;50.742;10.864;2024-01-11T07:49:04;54.17;49.90;56.20;;
66747;Laerm;53658;50.742;10.864;2024-01-11T07:51:30;53.47;49.88;55.22;;
66747;Laerm;53658;50.742;10.864;2024-01-11T07:53:56;53.26;49.93;55.30;;
66747;Laerm;53658;50.742;10.864;2024-01-11T07:56:22;51.65;49.28;54.19;;
66747;Laerm;53658;50.742;10.864;2024-01-11T07:58:48;49.99;48.07;52.03;;
66747;Laerm;53658;50.742;10.864;2024-01-11T08:01:16;49.01;47.74;50.25;;
66747;Laerm;53658;50.742;10.864;2024-01-11T08:03:42;48.63;47.08;49.96;;
66747;Laerm;53658;50.742;10.864;2024-01-11T08:06:10;48.29;46.93;49.58;;
66747;Laerm;53658;50.742;10.864;2024-01-11T08:08:39;48.11;46.56;49.67;;
66747;Laerm;53658;50.742;10.864;2024-01-11T08:11:08;48.03;46.40;49.73;;
66747;Laerm;53658;50.742;10.864;2024-01-11T08:13:34;48.02;46.33;50.01;;
66747;Laerm;53658;50.742;10.864;2024-01-11T08:16:01;48.05;45.75;49.75;;
66747;Laerm;53658;50.742;10.864;2024-01-11T08:18:30;48.02;46.15;49.71;;
66747;Laerm;53658;50.742;10.864;2024-01-11T08:20:56;48.02;46.25;50.03;;
66747;Laerm;53658;50.742;10.864;2024-01-11T08:23:22;47.99;45.97;49.85;;
66747;Laerm;53658;50.742;10.864;2024-01-11T08:25:49;47.91;45.63;49.90;;
66747;Laerm;53658;50.742;10.864;2024-01-11T08:28:15;47.90;45.89;49.73;;
66747;Laerm;53658;50.742;10.864;2024-01-11T08:30:40;47.91;45.89;49.52;;
66747;Laerm;53658;50.742;10.864;2024-01-11T08:33:08;47.89;45.66;49.74;;
66747;Laerm;53658;50.742;10.864;2024-01-11T08:35:34;47.78;45.72;49.44;;
66747;Laerm;53658;50.742;10.864;2024-01-11T08:38:00;47.73;45.54;49.75;;
66747;Laerm;53658;50.742;10.864;2024-01-11T08:40:26;47.70;45.75;49.53;;
66747;Laerm;53658;50.742;10.864;2024-01-11T08:42:52;47.64;45.45;49.38;;
66747;Laerm;53658;50.742;10.864;2024-01-11T08:45:18;47.72;45.77;49.52;;
66747;Laerm;53658;50.742;10.864;2024-01-11T08:47:45;47.72;45.63;49.67;;
66747;Laerm;53658;50.742;10.864;2024-01-11T08:50:14;47.67;45.48;49.50;;
66747;Laerm;53658;50.742;10.864;2024-01-11T08:52:41;47.63;45.72;49.32;;
66747;Laerm;53658;50.742;10.864;2024-01-11T08:55:08;47.67;45.11;49.74;;
66747;Laerm;53658;50.742;10.864;2024-01-11T08:57:35;47.63;45.11;49.51;;
66747;Laerm;53658;50.742;10.864;2024-01-11T09:00:02;47.58;45.69;49.57;;
66747;Laerm;53658;50.742;10.864;2024-01-11T09:02:29;47.67;45.63;49.50;;
66747;Laerm;53658;50.742;10.864;2024-01-11T09:04:55;47.57;45.45;49.44;;
66747;Laerm;53658;50.742;10.864;2024-01-11T09:07:21;47.33;45.30;49.11;;
66747;Laerm;53658;50.742;10.864;2024-01-11T09:09:46;47.12;45.27;48.77;;
66747;Laerm;53658;50.742;10.864;2024-01-11T09:12:12;46.92;45.04;48.64;;
66747;Laerm;53658;50.742;10.864;2024-01-11T09:14:38;46.69;44.94;48.52;;
66747;Laerm;53658;50.742;10.864;2024-01-11T09:17:05;46.62;44.97;48.23;;
66747;Laerm;53658;50.742;10.864;2024-01-11T09:19:32;46.51;44.90;47.95;;
66747;Laerm;53658;50.742;10.864;2024-01-11T09:22:03;46.41;44.87;47.88;;
66747;Laerm;53658;50.742;10.864;2024-01-11T09:24:29;46.30;44.83;47.72;;
66747;Laerm;53658;50.742;10.864;2024-01-11T09:26:54;46.28;44.69;47.74;;
66747;Laerm;53658;50.742;10.864;2024-01-11T09:29:20;46.26;44.76;47.81;;
66747;Laerm;53658;50.742;10.864;2024-01-11T09:31:46;46.27;44.83;47.83;;
66747;Laerm;53658;50.742;10.864;2024-01-11T09:34:12;46.26;44.87;47.79;;
66747;Laerm;53658;50.742;10.864;2024-01-11T09:36:38;46.32;44.97;47.72;;
66747;Laerm;53658;50.742;10.864;2024-01-11T09:39:05;46.38;44.97;51.14;;
66747;Laerm;53658;50.742;10.864;2024-01-11T09:41:31;46.47;45.14;50.68;;
66747;Laerm;53658;50.742;10.864;2024-01-11T09:44:00;46.48;45.30;47.86;;
66747;Laerm;53658;50.742;10.864;2024-01-11T09:46:31;46.54;45.30;47.77;;
66747;Laerm;53658;50.742;10.864;2024-01-11T09:48:58;46.60;45.30;47.96;;
66747;Laerm;53658;50.742;10.864;2024-01-11T09:51:26;46.68;45.42;50.56;;
66747;Laerm;53658;50.742;10.864;2024-01-11T09:53:55;46.72;45.42;51.06;;
66747;Laerm;53658;50.742;10.864;2024-01-11T09:56:22;46.82;45.42;50.30;;
66747;Laerm;53658;50.742;10.864;2024-01-11T09:58:50;46.85;45.72;50.62;;
66747;Laerm;53658;50.742;10.864;2024-01-11T10:01:16;46.78;45.33;49.73;;
66747;Laerm;53658;50.742;10.864;2024-01-11T10:03:44;46.88;45.42;51.95;;
66747;Laerm;53658;50.742;10.864;2024-01-11T10:06:12;47.13;45.75;49.75;;
66747;Laerm;53658;50.742;10.864;2024-01-11T10:08:38;47.44;46.25;52.53;;
66747;Laerm;53658;50.742;10.864;2024-01-11T10:11:04;47.64;46.40;51.75;;
66747;Laerm;53658;50.742;10.864;2024-01-11T10:13:31;47.85;46.43;54.01;;
66747;Laerm;53658;50.742;10.864;2024-01-11T10:16:10;48.11;46.87;54.14;;
66747;Laerm;53658;50.742;10.864;2024-01-11T10:18:39;48.49;47.18;52.68;;
66747;Laerm;53658;50.742;10.864;2024-01-11T10:21:05;49.46;47.88;53.98;;
66747;Laerm;53658;50.742;10.864;2024-01-11T10:23:34;52.13;49.89;56.73;;
66747;Laerm;53658;50.742;10.864;2024-01-11T10:26:00;52.79;50.67;57.15;;
66747;Laerm;53658;50.742;10.864;2024-01-11T10:28:26;51.37;48.71;55.48;;
66747;Laerm;53658;50.742;10.864;2024-01-11T10:30:53;51.58;50.17;52.72;;
66747;Laerm;53658;50.742;10.864;2024-01-11T10:33:19;51.90;50.85;52.86;;
66747;Laerm;53658;50.742;10.864;2024-01-11T10:35:46;51.25;50.02;52.63;;
66747;Laerm;53658;50.742;10.864;2024-01-11T10:38:14;50.48;49.04;51.62;;
66747;Laerm;53658;50.742;10.864;2024-01-11T10:40:42;49.96;48.39;51.08;;
66747;Laerm;53658;50.742;10.864;2024-01-11T10:43:11;50.01;48.77;51.06;;
66747;Laerm;53658;50.742;10.864;2024-01-11T10:45:39;49.88;48.81;50.85;;
66747;Laerm;53658;50.742;10.864;2024-01-11T10:48:13;50.10;49.02;51.03;;
66747;Laerm;53658;50.742;10.864;2024-01-11T10:50:45;49.87;48.43;51.03;;
66747;Laerm;53658;50.742;10.864;2024-01-11T10:56:05;49.50;48.36;50.56;;
66747;Laerm;53658;50.742;10.864;2024-01-11T10:58:33;49.24;47.46;50.42;;
66747;Laerm;53658;50.742;10.864;2024-01-11T11:01:00;47.73;45.48;49.39;;
66747;Laerm;53658;50.742;10.864;2024-01-11T11:03:26;45.57;42.41;47.28;;
66747;Laerm;53658;50.742;10.864;2024-01-11T11:05:54;41.63;39.58;43.85;;
66747;Laerm;53658;50.742;10.864;2024-01-11T11:08:24;42.03;39.70;44.19;;
66747;Laerm;53658;50.742;10.864;2024-01-11T11:10:55;44.18;42.03;45.69;;
66747;Laerm;53658;50.742;10.864;2024-01-11T11:13:22;46.27;44.07;47.74;;
66747;Laerm;53658;50.742;10.864;2024-01-11T11:15:48;47.43;45.60;48.55;;
66747;Laerm;53658;50.742;10.864;2024-01-11T11:18:15;46.89;45.01;48.51;;
66747;Laerm;53658;50.742;10.864;2024-01-11T11:20:42;45.77;43.72;47.50;;
66747;Laerm;53658;50.742;10.864;2024-01-11T11:23:10;44.35;42.88;45.94;;
66747;Laerm;53658;50.742;10.864;2024-01-11T11:25:37;45.33;42.98;47.32;;
66747;Laerm;53658;50.742;10.864;2024-01-11T11:28:04;47.12;45.04;48.45;;
66747;Laerm;53658;50.742;10.864;2024-01-11T11:30:30;47.48;45.63;49.38;;
66747;Laerm;53658;50.742;10.864;2024-01-11T11:32:57;45.05;42.16;47.43;;
66747;Laerm;53658;50.742;10.864;2024-01-11T11:35:23;42.42;40.23;44.03;;
66747;Laerm;53658;50.742;10.864;2024-01-11T11:37:55;39.53;36.69;41.89;;
66747;Laerm;53658;50.742;10.864;2024-01-11T11:40:37;39.23;36.69;41.06;;
66747;Laerm;53658;50.742;10.864;2024-01-11T11:43:08;39.25;36.69;41.53;;
66747;Laerm;53658;50.742;10.864;2024-01-11T11:45:35;39.27;36.45;41.14;;
66747;Laerm;53658;50.742;10.864;2024-01-11T11:48:02;39.25;36.91;41.30;;
66747;Laerm;53658;50.742;10.864;2024-01-11T11:50:45;39.22;36.91;41.14;;
66747;Laerm;53658;50.742;10.864;2024-01-11T11:53:11;39.24;36.56;41.30;;
66747;Laerm;53658;50.742;10.864;2024-01-11T11:55:37;39.31;36.45;41.14;;
66747;Laerm;53658;50.742;10.864;2024-01-11T11:58:04;39.35;36.69;41.22;;
66747;Laerm;53658;50.742;10.864;2024-01-11T12:00:30;39.37;36.69;41.38;;
66747;Laerm;53658;50.742;10.864;2024-01-11T12:03:02;39.36;36.91;41.41;;
66747;Laerm;53658;50.742;10.864;2024-01-11T12:05:29;39.36;37.12;41.38;;
66747;Laerm;53658;50.742;10.864;2024-01-11T12:07:55;39.40;36.45;41.22;;
66747;Laerm;53658;50.742;10.864;2024-01-11T12:10:21;39.42;37.12;41.53;;
66747;Laerm;53658;50.742;10.864;2024-01-11T12:12:47;39.42;36.45;41.14;;
66747;Laerm;53658;50.742;10.864;2024-01-11T12:15:13;39.44;36.45;41.82;;
66747;Laerm;53658;50.742;10.864;2024-01-11T12:17:39;39.48;37.12;41.61;;
66747;Laerm;53658;50.742;10.864;2024-01-11T12:20:11;39.50;36.91;41.46;;
66747;Laerm;53658;50.742;10.864;2024-01-11T12:22:37;39.47;36.69;41.30;;
66747;Laerm;53658;50.742;10.864;2024-01-11T12:25:04;39.52;36.45;41.38;;
66747;Laerm;53658;50.742;10.864;2024-01-11T12:27:30;39.48;36.69;41.46;;
66747;Laerm;53658;50.742;10.864;2024-01-11T12:29:56;39.42;36.69;41.33;;
66747;Laerm;53658;50.742;10.864;2024-01-11T12:32:23;39.37;36.69;41.53;;
66747;Laerm;53658;50.742;10.864;2024-01-11T12:34:49;39.36;36.69;41.46;;
66747;Laerm;53658;50.742;10.864;2024-01-11T12:37:15;39.30;37.12;41.14;;
66747;Laerm;53658;50.742;10.864;2024-01-11T12:39:41;39.29;36.69;42.47;;
66747;Laerm;53658;50.742;10.864;2024-01-11T12:42:07;39.49;36.91;41.30;;
66747;Laerm;53658;50.742;10.864;2024-01-11T12:44:34;39.42;36.91;41.14;;
66747;Laerm;53658;50.742;10.864;2024-01-11T12:47:03;39.40;36.91;41.22;;
66747;Laerm;53658;50.742;10.864;2024-01-11T12:49:29;39.46;36.91;41.22;;
66747;Laerm;53658;50.742;10.864;2024-01-11T12:51:55;39.60;37.12;41.38;;
66747;Laerm;53658;50.742;10.864;2024-01-11T12:54:21;40.24;38.21;41.61;;
66747;Laerm;53658;50.742;10.864;2024-01-11T12:56:46;39.62;37.12;41.46;;
66747;Laerm;53658;50.742;10.864;2024-01-11T12:59:12;39.77;37.12;41.53;;
66747;Laerm;53658;50.742;10.864;2024-01-11T13:01:40;39.34;36.45;41.14;;
66747;Laerm;53658;50.742;10.864;2024-01-11T13:04:09;39.24;36.91;41.38;;
66747;Laerm;53658;50.742;10.864;2024-01-11T13:06:35;39.20;36.77;41.11;;
66747;Laerm;53658;50.742;10.864;2024-01-11T13:09:02;39.30;36.56;41.06;;
66747;Laerm;53658;50.742;10.864;2024-01-11T13:11:29;39.53;37.32;41.30;;
66747;Laerm;53658;50.742;10.864;2024-01-11T13:13:54;39.63;37.52;41.38;;
66747;Laerm;53658;50.742;10.864;2024-01-11T13:16:20;39.89;37.70;41.38;;
66747;Laerm;53658;50.742;10.864;2024-01-11T13:18:47;39.90;37.70;41.75;;
66747;Laerm;53658;50.742;10.864;2024-01-11T13:21:13;40.22;38.21;41.75;;
66747;Laerm;53658;50.742;10.864;2024-01-11T13:23:38;40.56;37.88;41.96;;
66747;Laerm;53658;50.742;10.864;2024-01-11T13:26:06;40.63;38.67;42.03;;
66747;Laerm;53658;50.742;10.864;2024-01-11T13:28:33;40.65;38.95;42.03;;
66747;Laerm;53658;50.742;10.864;2024-01-11T13:30:59;40.62;38.67;41.96;;
66747;Laerm;53658;50.742;10.864;2024-01-11T13:33:25;40.50;38.81;41.96;;